createdAt,value
2018-06-12T00:00:17.654Z,66.99
2018-06-12T00:02:47.358Z,67.08
2018-06-12T00:05:16.839Z,67.99
2018-06-12T00:07:46.188Z,66.96
2018-06-12T00:10:15.522Z,68.04
2018-06-12T00:12:45.026Z,67.70
2018-06-12T00:15:14.457Z,68.14
2018-06-12T00:17:43.903Z,68.30
2018-06-12T00:20:13.272Z,68.72
2018-06-12T00:22:42.585Z,68.01
2018-06-12T00:25:11.935Z,68.14
2018-06-12T00:27:41.513Z,68.29
2018-06-12T00:30:10.895Z,68.30
2018-06-12T00:32:40.279Z,68.61
2018-06-12T00:35:10.590Z,68.73
2018-06-12T00:37:39.996Z,69.61
2018-06-12T00:40:09.361Z,69.49
2018-06-12T00:42:38.852Z,69.64
2018-06-12T00:45:08.264Z,69.51
2018-06-12T00:47:37.871Z,70.21
2018-06-12T00:50:07.662Z,69.89
2018-06-12T00:52:37.807Z,69.54
2018-06-12T00:55:07.163Z,69.29
2018-06-12T00:57:36.731Z,70.37
2018-06-12T01:00:06.593Z,69.68
2018-06-12T01:02:36.100Z,70.71
2018-06-12T01:05:05.662Z,70.53
2018-06-12T01:07:35.282Z,71.25
2018-06-12T01:10:04.959Z,70.75
2018-06-12T01:12:34.688Z,70.43
2018-06-12T01:15:04.228Z,69.65
2018-06-12T01:17:33.406Z,70.51
2018-06-12T01:20:03.121Z,70.86
2018-06-12T01:22:32.874Z,69.96
2018-06-12T01:25:02.439Z,70.88
2018-06-12T01:27:32.411Z,70.12
2018-06-12T01:30:02.046Z,70.82
2018-06-12T01:32:31.459Z,70.42
2018-06-12T01:35:01.088Z,70.43
2018-06-12T01:37:30.446Z,70.11
2018-06-12T01:39:59.910Z,71.64
2018-06-12T01:42:29.235Z,70.88
2018-06-12T01:44:58.534Z,71.01
2018-06-12T01:47:27.795Z,71.22
2018-06-12T01:49:57.088Z,71.73
2018-06-12T01:52:26.513Z,71.31
2018-06-12T01:54:55.827Z,70.86
2018-06-12T01:57:25.234Z,71.06
2018-06-12T01:59:54.631Z,70.83
2018-06-12T02:02:23.949Z,71.08
2018-06-12T02:04:53.397Z,71.25
2018-06-12T02:07:22.779Z,71.54
2018-06-12T02:13:11.311Z,71.63
2018-06-12T02:15:40.597Z,71.62
2018-06-12T02:18:09.915Z,72.07
2018-06-12T02:20:38.989Z,72.41
2018-06-12T02:23:08.468Z,72.07
2018-06-12T02:25:37.575Z,72.58
2018-06-12T02:28:06.684Z,72.35
2018-06-12T02:30:36.023Z,72.74
2018-06-12T02:33:05.473Z,72.48
2018-06-12T02:35:34.761Z,71.33
2018-06-12T02:38:04.044Z,72.37
2018-06-12T02:40:33.358Z,72.77
2018-06-12T02:43:03.219Z,72.76
2018-06-12T02:45:32.630Z,73.04
2018-06-12T02:48:02.024Z,74.06
2018-06-12T02:50:31.440Z,73.29
2018-06-12T02:53:00.751Z,73.11
2018-06-12T02:55:30.032Z,72.46
2018-06-12T02:57:59.360Z,73.50
2018-06-12T03:00:28.519Z,73.07
2018-06-12T03:02:57.909Z,72.79
2018-06-12T03:05:27.210Z,73.87
2018-06-12T03:07:56.271Z,73.74
2018-06-12T03:10:25.698Z,73.16
2018-06-12T03:12:54.951Z,74.09
2018-06-12T03:15:24.482Z,74.22
2018-06-12T03:17:53.922Z,74.20
2018-06-12T03:20:54.511Z,74.31
2018-06-12T03:23:24.012Z,73.39
2018-06-12T03:25:59.798Z,73.80
2018-06-12T03:28:29.615Z,74.19
2018-06-12T03:30:58.977Z,73.95
2018-06-12T03:33:28.239Z,74.10
2018-06-12T03:35:57.603Z,72.80
2018-06-12T03:38:27.058Z,72.87
2018-06-12T03:40:56.342Z,73.97
2018-06-12T03:43:25.636Z,74.39
2018-06-12T03:45:54.939Z,74.26
2018-06-12T03:48:24.277Z,72.91
2018-06-12T03:50:53.562Z,74.05
2018-06-12T03:53:22.713Z,72.41
2018-06-12T03:55:52.126Z,73.49
2018-06-12T03:58:21.687Z,73.29
2018-06-12T04:00:51.337Z,73.27
2018-06-12T04:03:20.989Z,72.30
2018-06-12T04:05:50.408Z,71.72
2018-06-12T04:08:20.088Z,73.30
2018-06-12T04:10:49.439Z,73.65
2018-06-12T04:13:18.966Z,74.05
2018-06-12T04:15:48.527Z,74.71
2018-06-12T04:18:18.003Z,74.58
2018-06-12T04:20:47.561Z,74.25
2018-06-12T04:23:17.078Z,73.71
2018-06-12T04:25:46.548Z,73.67
2018-06-12T04:28:15.845Z,72.54
2018-06-12T04:30:45.221Z,72.10
2018-06-12T04:33:14.583Z,71.27
2018-06-12T04:35:43.920Z,72.21
2018-06-12T04:38:13.353Z,70.25
2018-06-12T04:40:42.858Z,72.05
2018-06-12T04:43:12.054Z,70.41
2018-06-12T04:45:41.454Z,71.00
2018-06-12T04:48:10.941Z,71.15
2018-06-12T04:50:40.247Z,71.92
2018-06-12T04:53:09.780Z,71.72
2018-06-12T04:55:39.909Z,72.89
2018-06-12T05:01:06.678Z,71.55
2018-06-12T05:03:36.042Z,73.49
2018-06-12T05:06:05.645Z,72.39
2018-06-12T05:08:34.988Z,72.26
2018-06-12T05:11:04.309Z,72.58
2018-06-12T05:13:33.673Z,72.55
2018-06-12T05:16:03.036Z,72.12
2018-06-12T05:18:32.427Z,71.98
2018-06-12T05:21:01.763Z,71.79
2018-06-12T05:23:31.146Z,72.06
2018-06-12T05:26:00.411Z,71.90
2018-06-12T05:28:29.722Z,70.66
2018-06-12T05:30:59.056Z,70.86
2018-06-12T05:33:28.465Z,69.83
2018-06-12T05:35:57.761Z,69.76
2018-06-12T05:38:27.198Z,69.64
2018-06-12T05:40:56.467Z,69.40
2018-06-12T05:43:25.866Z,69.80
2018-06-12T05:45:55.332Z,70.38
2018-06-12T05:48:24.742Z,70.03
2018-06-12T05:50:54.168Z,69.95
2018-06-12T05:53:23.545Z,68.86
2018-06-12T05:55:52.950Z,69.60
2018-06-12T05:58:22.593Z,69.55
2018-06-12T06:00:52.101Z,69.56
2018-06-12T06:03:21.578Z,68.77
2018-06-12T06:05:51.126Z,68.18
2018-06-12T06:08:20.630Z,68.43
2018-06-12T06:10:50.163Z,67.60
2018-06-12T06:13:19.636Z,66.68
2018-06-12T06:15:49.151Z,66.65
2018-06-12T06:18:18.488Z,68.14
2018-06-12T06:20:47.881Z,67.11
2018-06-12T06:23:17.533Z,66.26
2018-06-12T06:25:46.872Z,68.15
2018-06-12T06:28:16.193Z,66.27
2018-06-12T06:30:45.566Z,66.12
2018-06-12T06:33:14.990Z,66.63
2018-06-12T06:35:44.266Z,65.83
2018-06-12T06:38:13.605Z,65.19
2018-06-12T06:40:43.027Z,66.02
2018-06-12T06:43:12.477Z,64.38
2018-06-12T06:45:41.943Z,64.34
2018-06-12T06:48:11.278Z,64.37
2018-06-12T06:50:40.554Z,65.91
2018-06-12T06:53:09.935Z,65.17
2018-06-12T06:55:39.290Z,63.18
2018-06-12T06:58:08.640Z,65.17
2018-06-12T07:00:38.159Z,65.22
2018-06-12T07:03:07.440Z,64.47
2018-06-12T07:05:36.930Z,63.84
2018-06-12T07:08:06.223Z,64.42
2018-06-12T07:10:35.511Z,64.41
2018-06-12T07:13:04.822Z,63.92
2018-06-12T07:15:34.100Z,63.16
2018-06-12T07:18:03.464Z,63.23
2018-06-12T07:20:43.704Z,62.58
2018-06-12T07:23:13.014Z,62.59
2018-06-12T07:25:42.362Z,62.61
2018-06-12T07:28:11.785Z,62.41
2018-06-12T07:30:41.218Z,62.64
2018-06-12T07:33:10.516Z,63.25
2018-06-12T07:35:39.993Z,62.48
2018-06-12T07:38:09.342Z,61.16
2018-06-12T07:40:38.433Z,61.16
2018-06-12T07:43:07.791Z,61.54
2018-06-12T07:45:37.107Z,59.79
2018-06-12T07:48:06.401Z,57.13
2018-06-12T07:50:35.738Z,57.97
2018-06-12T07:53:05.023Z,58.09
2018-06-12T07:55:34.318Z,57.70
2018-06-12T07:58:03.706Z,57.81
2018-06-12T08:00:33.002Z,56.62
2018-06-12T08:03:02.492Z,58.26
2018-06-12T08:05:31.554Z,57.04
2018-06-12T08:08:01.132Z,55.42
2018-06-12T08:10:30.421Z,56.02
2018-06-12T08:12:59.881Z,54.44
2018-06-12T08:15:29.170Z,52.85
2018-06-12T08:17:58.419Z,52.85
2018-06-12T08:20:27.751Z,53.32
2018-06-12T08:22:57.207Z,53.71
2018-06-12T08:25:26.667Z,53.88
2018-06-12T08:27:56.039Z,53.48
2018-06-12T08:30:25.490Z,54.22
2018-06-12T08:32:54.679Z,53.80
2018-06-12T08:35:24.144Z,52.71
2018-06-12T08:37:53.467Z,52.71
2018-06-12T08:40:22.867Z,53.19
2018-06-12T08:42:52.393Z,54.79
2018-06-12T08:45:21.835Z,52.60
2018-06-12T08:47:51.085Z,53.28
2018-06-12T08:50:20.488Z,53.85
2018-06-12T08:52:49.828Z,53.91
2018-06-12T08:55:19.220Z,52.31
2018-06-12T08:57:48.750Z,52.98
2018-06-12T09:00:18.317Z,52.29
2018-06-12T09:02:47.895Z,51.89
2018-06-12T09:05:17.232Z,54.05
2018-06-12T09:07:46.511Z,52.24
2018-06-12T09:10:15.818Z,53.77
2018-06-12T09:12:45.239Z,51.73
2018-06-12T09:15:14.652Z,52.89
2018-06-12T09:17:43.973Z,52.14
2018-06-12T09:20:13.290Z,51.75
2018-06-12T09:22:42.702Z,52.22
2018-06-12T09:25:12.091Z,51.44
2018-06-12T09:27:46.753Z,51.69
2018-06-12T09:30:16.582Z,51.20
2018-06-12T09:32:46.240Z,51.81
2018-06-12T09:35:15.514Z,52.00
2018-06-12T09:37:44.817Z,52.88
2018-06-12T09:40:14.147Z,51.93
2018-06-12T09:42:43.494Z,50.33
2018-06-12T09:45:12.917Z,51.54
2018-06-12T09:47:42.251Z,51.62
2018-06-12T09:50:11.824Z,52.51
2018-06-12T09:52:41.123Z,51.39
2018-06-12T09:55:10.442Z,51.52
2018-06-12T09:57:39.769Z,50.82
2018-06-12T10:00:09.072Z,50.77
2018-06-12T10:02:38.375Z,50.64
2018-06-12T10:05:07.664Z,50.43
2018-06-12T10:07:36.945Z,50.26
2018-06-12T10:10:06.357Z,49.71
2018-06-12T10:12:35.643Z,49.74
2018-06-12T10:15:04.934Z,48.76
2018-06-12T10:17:34.228Z,50.14
2018-06-12T10:20:03.584Z,48.74
2018-06-12T10:22:32.904Z,47.25
2018-06-12T10:25:02.277Z,48.29
2018-06-12T10:27:31.609Z,49.04
2018-06-12T10:30:00.945Z,48.10
2018-06-12T10:32:30.296Z,47.12
2018-06-12T10:34:59.641Z,49.22
2018-06-12T10:37:29.101Z,49.33
2018-06-12T10:39:58.221Z,51.15
2018-06-12T10:42:27.509Z,50.52
2018-06-12T10:44:56.821Z,51.05
2018-06-12T10:47:26.357Z,51.03
2018-06-12T10:49:55.755Z,50.07
2018-06-12T10:52:24.993Z,49.81
2018-06-12T10:54:54.407Z,50.64
2018-06-12T10:57:23.774Z,50.02
2018-06-12T10:59:53.217Z,49.75
2018-06-12T11:02:22.705Z,50.28
2018-06-12T11:04:52.172Z,50.01
2018-06-12T11:07:21.583Z,50.79
2018-06-12T11:09:50.949Z,51.32
2018-06-12T11:12:20.326Z,49.41
2018-06-12T11:14:49.725Z,48.14
2018-06-12T11:17:19.060Z,48.89
2018-06-12T11:19:49.019Z,49.71
2018-06-12T11:22:18.549Z,48.61
2018-06-12T11:24:47.881Z,47.71
2018-06-12T11:27:17.248Z,48.01
2018-06-12T11:29:46.766Z,49.59
2018-06-12T11:32:16.090Z,49.93
2018-06-12T11:34:45.458Z,49.03
2018-06-12T11:37:14.791Z,48.81
2018-06-12T11:39:44.141Z,48.16
2018-06-12T11:42:13.424Z,48.06
2018-06-12T11:44:42.840Z,46.90
2018-06-12T11:47:12.164Z,47.54
2018-06-12T11:49:41.462Z,47.08
2018-06-12T11:52:10.571Z,47.76
2018-06-12T11:54:41.584Z,48.78
2018-06-12T11:57:11.063Z,46.42
2018-06-12T11:59:40.545Z,48.39
2018-06-12T12:02:09.910Z,49.01
2018-06-12T12:04:39.534Z,48.20
2018-06-12T12:07:08.879Z,48.84
2018-06-12T12:09:38.334Z,48.19
2018-06-12T12:12:07.636Z,48.38
2018-06-12T12:14:36.745Z,49.34
2018-06-12T12:17:06.248Z,49.44
2018-06-12T12:19:35.610Z,48.74
2018-06-12T12:22:05.009Z,49.19
2018-06-12T12:24:34.281Z,48.82
2018-06-12T12:27:03.616Z,47.05
2018-06-12T12:29:32.955Z,49.42
2018-06-12T12:32:02.306Z,48.82
2018-06-12T12:34:31.597Z,49.55
2018-06-12T12:37:00.967Z,51.14
2018-06-12T12:39:30.314Z,50.31
2018-06-12T12:42:01.026Z,51.65
2018-06-12T12:44:33.860Z,53.92
2018-06-12T12:47:07.996Z,55.12
2018-06-12T12:49:37.490Z,55.54
2018-06-12T12:52:06.961Z,54.80
2018-06-12T12:54:36.236Z,56.37
2018-06-12T12:57:05.570Z,57.08
2018-06-12T12:59:34.966Z,57.21
2018-06-12T13:02:04.394Z,55.82
2018-06-12T13:04:34.985Z,57.11
2018-06-12T13:07:05.305Z,56.34
2018-06-12T13:09:34.655Z,56.89
2018-06-12T13:12:09.231Z,57.26
2018-06-12T13:14:46.898Z,57.68
2018-06-12T13:17:21.631Z,61.99
2018-06-12T13:19:57.608Z,62.98
2018-06-12T13:22:30.926Z,63.18
2018-06-12T13:25:03.359Z,64.00
2018-06-12T13:27:32.656Z,63.01
2018-06-12T13:30:02.177Z,65.08
2018-06-12T13:32:33.336Z,66.22
2018-06-12T13:35:02.742Z,66.16
2018-06-12T13:37:32.267Z,65.38
2018-06-12T13:40:01.649Z,65.56
2018-06-12T13:42:30.921Z,65.94
2018-06-12T13:45:00.621Z,66.38
2018-06-12T13:47:29.903Z,68.17
2018-06-12T13:49:59.692Z,67.54
2018-06-12T13:52:29.182Z,68.75
2018-06-12T13:54:58.595Z,67.66
2018-06-12T13:57:28.114Z,65.05
2018-06-12T13:59:57.442Z,66.53
2018-06-12T14:02:26.850Z,68.00
2018-06-12T14:04:56.115Z,67.67
2018-06-12T14:07:25.455Z,66.76
2018-06-12T14:09:54.842Z,68.64
2018-06-12T14:12:24.221Z,69.03
2018-06-12T14:14:53.669Z,69.75
2018-06-12T14:17:25.147Z,69.21
2018-06-12T14:19:54.604Z,69.51
2018-06-12T14:22:23.860Z,68.43
2018-06-12T14:24:53.412Z,70.28
2018-06-12T14:27:22.936Z,72.26
2018-06-12T14:29:52.337Z,70.98
2018-06-12T14:32:21.805Z,71.56
2018-06-12T14:34:51.193Z,72.32
2018-06-12T14:37:20.689Z,74.38
2018-06-12T14:39:50.259Z,75.93
2018-06-12T14:42:19.647Z,73.65
2018-06-12T14:44:48.843Z,74.25
2018-06-12T14:47:18.296Z,77.31
2018-06-12T14:49:47.659Z,76.36
2018-06-12T14:52:17.124Z,77.93
2018-06-12T14:54:46.508Z,79.92
2018-06-12T14:57:15.822Z,79.28
2018-06-12T14:59:45.186Z,79.50
2018-06-12T15:02:14.547Z,80.10
2018-06-12T15:04:43.901Z,81.10
2018-06-12T15:07:13.192Z,80.32
2018-06-12T15:09:42.315Z,79.56
2018-06-12T15:12:11.630Z,80.65
2018-06-12T15:14:40.950Z,78.87
2018-06-12T15:17:10.204Z,78.56
2018-06-12T15:19:41.651Z,80.26
2018-06-12T15:22:10.943Z,78.43
2018-06-12T15:24:40.271Z,79.51
2018-06-12T15:27:09.640Z,76.60
2018-06-12T15:29:38.974Z,79.81
2018-06-12T15:32:08.227Z,78.82
2018-06-12T15:34:37.512Z,77.09
2018-06-12T15:37:06.953Z,77.14
2018-06-12T15:39:36.620Z,76.46
2018-06-12T15:42:05.950Z,74.54
2018-06-12T15:44:35.443Z,73.75
2018-06-12T15:47:04.769Z,75.47
2018-06-12T15:49:33.845Z,74.81
2018-06-12T15:52:03.163Z,74.90
2018-06-12T15:54:35.430Z,73.13
2018-06-12T15:57:04.710Z,73.53
2018-06-12T15:59:38.420Z,73.44
2018-06-12T16:02:09.287Z,71.76
2018-06-12T16:04:38.607Z,71.04
2018-06-12T16:07:08.965Z,70.18
2018-06-12T16:09:39.827Z,68.93
2018-06-12T16:12:09.943Z,69.10
2018-06-12T16:14:39.765Z,72.12
2018-06-12T16:17:09.786Z,69.24
2018-06-12T16:19:40.112Z,68.13
2018-06-12T16:22:09.547Z,68.29
2018-06-12T16:24:40.883Z,69.06
2018-06-12T16:27:12.572Z,69.26
2018-06-12T16:29:42.449Z,65.97
2018-06-12T16:32:13.572Z,66.15
2018-06-12T16:34:42.955Z,63.42
2018-06-12T16:37:13.986Z,64.74
2018-06-12T16:39:44.352Z,64.05
2018-06-12T16:42:15.105Z,64.42
2018-06-12T16:44:45.077Z,62.06
2018-06-12T16:47:15.782Z,63.25
2018-06-12T16:49:47.120Z,62.41
2018-06-12T16:52:18.171Z,61.04
2018-06-12T16:54:52.494Z,62.43
2018-06-12T16:57:26.994Z,61.41
2018-06-12T16:59:58.390Z,64.42
2018-06-12T17:02:27.873Z,63.83
2018-06-12T17:05:02.461Z,61.79
2018-06-12T17:07:32.972Z,64.20
2018-06-12T17:10:03.224Z,62.93
2018-06-12T17:12:36.570Z,62.85
2018-06-12T17:15:06.209Z,64.08
2018-06-12T17:17:35.204Z,63.19
2018-06-12T17:20:04.532Z,63.28
2018-06-12T17:22:33.986Z,61.39
2018-06-12T17:25:03.492Z,63.85
2018-06-12T17:27:32.851Z,63.09
2018-06-12T17:30:02.199Z,64.41
2018-06-12T17:32:31.512Z,63.14
2018-06-12T17:35:00.722Z,64.44
2018-06-12T17:37:30.039Z,65.10
2018-06-12T17:39:59.195Z,62.80
2018-06-12T17:42:28.493Z,63.59
2018-06-12T17:44:57.927Z,64.94
2018-06-12T17:47:27.282Z,64.61
2018-06-12T17:49:56.615Z,64.00
2018-06-12T17:52:26.521Z,65.94
2018-06-12T17:54:56.683Z,67.06
2018-06-12T17:57:26.171Z,62.92
2018-06-12T17:59:57.516Z,64.49
2018-06-12T18:02:27.074Z,65.89
2018-06-12T18:04:56.486Z,66.96
2018-06-12T18:07:25.909Z,65.24
2018-06-12T18:09:55.408Z,65.81
2018-06-12T18:12:26.339Z,66.40
2018-06-12T18:14:55.851Z,63.82
2018-06-12T18:17:26.110Z,63.18
2018-06-12T18:20:02.693Z,62.09
2018-06-12T18:22:32.786Z,63.00
2018-06-12T18:25:02.563Z,63.92
2018-06-12T18:27:54.135Z,64.03
2018-06-12T18:30:24.091Z,63.17
2018-06-12T18:32:53.799Z,64.16
2018-06-12T18:35:23.498Z,62.55
2018-06-12T18:37:53.914Z,63.08
2018-06-12T18:40:25.216Z,63.85
2018-06-12T18:42:55.031Z,63.35
2018-06-12T18:45:27.789Z,63.61
2018-06-12T18:47:57.637Z,63.14
2018-06-12T18:50:26.871Z,63.57
2018-06-12T18:52:57.223Z,64.20
2018-06-12T18:55:27.036Z,62.53
2018-06-12T18:57:56.379Z,63.52
2018-06-12T19:00:26.037Z,62.98
2018-06-12T19:02:56.007Z,63.41
2018-06-12T19:05:26.120Z,62.49
2018-06-12T19:08:36.008Z,64.01
2018-06-12T19:11:09.233Z,63.87
2018-06-12T19:13:43.675Z,64.04
2018-06-12T19:16:14.639Z,62.93
2018-06-12T19:18:46.532Z,63.66
2018-06-12T19:21:19.643Z,63.13
2018-06-12T19:23:59.541Z,62.75
2018-06-12T19:26:34.667Z,62.73
2018-06-12T19:29:05.224Z,61.37
2018-06-12T19:31:34.600Z,63.26
2018-06-12T19:34:11.046Z,62.87
2018-06-12T19:36:41.191Z,63.95
2018-06-12T19:39:10.915Z,63.66
2018-06-12T19:41:40.400Z,63.80
2018-06-12T19:44:09.772Z,64.02
2018-06-12T19:46:39.388Z,62.91
2018-06-12T19:49:09.070Z,64.12
2018-06-12T19:51:38.207Z,64.45
2018-06-12T19:54:07.797Z,65.64
2018-06-12T19:56:37.867Z,65.64
2018-06-12T19:59:08.123Z,67.29
2018-06-12T20:01:39.314Z,66.77
2018-06-12T20:04:10.801Z,66.50
2018-06-12T20:06:41.939Z,67.41
2018-06-12T20:09:13.323Z,66.99
2018-06-12T20:11:44.389Z,66.69
2018-06-12T20:14:14.505Z,66.61
2018-06-12T20:16:45.453Z,67.73
2018-06-12T20:19:22.082Z,66.48
2018-06-12T20:22:00.036Z,65.93
2018-06-12T20:24:29.633Z,66.96
2018-06-12T20:27:05.205Z,66.41
2018-06-12T20:29:39.851Z,65.81
2018-06-12T20:32:11.405Z,65.67
2018-06-12T20:34:46.192Z,65.77
2018-06-12T20:37:17.598Z,65.80
2018-06-12T20:39:47.130Z,66.08
2018-06-12T20:42:16.720Z,65.80
2018-06-12T20:44:46.296Z,66.95
2018-06-12T20:47:15.754Z,67.49
2018-06-12T20:49:45.328Z,67.65
2018-06-12T20:52:18.547Z,67.09
2018-06-12T20:54:47.896Z,66.47
2018-06-12T20:57:17.308Z,68.16
2018-06-12T20:59:48.640Z,65.57
2018-06-12T21:02:20.642Z,66.70
2018-06-12T21:04:53.233Z,67.64
2018-06-12T21:07:27.820Z,67.59
2018-06-12T21:09:58.675Z,67.45
2018-06-12T21:12:30.466Z,67.58
2018-06-12T21:15:00.160Z,69.28
2018-06-12T21:17:32.020Z,68.54
2018-06-12T21:20:02.311Z,68.53
2018-06-12T21:22:31.613Z,68.01
2018-06-12T21:25:00.874Z,67.61
2018-06-12T21:27:30.185Z,68.21
2018-06-12T21:29:59.885Z,68.57
2018-06-12T21:32:29.418Z,68.87
2018-06-12T21:34:58.793Z,67.92
2018-06-12T21:37:28.936Z,66.68
2018-06-12T21:39:58.388Z,67.61
2018-06-12T21:42:27.908Z,69.18
2018-06-12T21:44:57.463Z,67.69
2018-06-12T21:47:26.937Z,68.95
2018-06-12T21:49:56.223Z,68.74
2018-06-12T21:52:25.564Z,68.60
2018-06-12T21:54:54.786Z,68.57
2018-06-12T21:57:24.194Z,69.17
2018-06-12T21:59:53.654Z,68.10
2018-06-12T22:02:23.121Z,69.19
2018-06-12T22:04:52.269Z,68.26
2018-06-12T22:07:21.601Z,67.62
2018-06-12T22:09:51.493Z,68.57
2018-06-12T22:12:21.092Z,69.46
2018-06-12T22:14:50.380Z,69.43
2018-06-12T22:17:19.766Z,69.57
2018-06-12T22:19:49.094Z,69.15
2018-06-12T22:22:18.562Z,68.99
2018-06-12T22:24:48.116Z,68.68
2018-06-12T22:27:23.052Z,68.86
2018-06-12T22:29:53.772Z,68.87
2018-06-12T22:32:23.354Z,69.49
2018-06-12T22:34:52.685Z,70.36
2018-06-12T22:37:22.034Z,70.67
2018-06-12T22:39:52.434Z,70.34
2018-06-12T22:42:21.736Z,70.99
2018-06-12T22:44:52.241Z,71.88
2018-06-12T22:50:18.433Z,72.12
2018-06-12T22:52:47.730Z,72.74
2018-06-12T22:55:17.032Z,72.00
2018-06-12T22:57:46.601Z,72.04
2018-06-12T23:00:21.487Z,72.23
2018-06-12T23:02:50.633Z,72.59
2018-06-12T23:05:20.094Z,72.51
2018-06-12T23:07:49.441Z,72.38
2018-06-12T23:10:23.366Z,72.43
2018-06-12T23:12:53.233Z,72.52
2018-06-12T23:15:22.719Z,72.79
2018-06-12T23:17:53.013Z,74.15
2018-06-12T23:21:44.311Z,73.97
2018-06-12T23:24:17.322Z,75.31
2018-06-12T23:26:46.801Z,75.04
2018-06-12T23:29:16.114Z,75.30
2018-06-12T23:31:45.445Z,75.32
2018-06-12T23:34:14.712Z,75.91
2018-06-12T23:36:44.181Z,75.94
2018-06-12T23:39:13.532Z,76.28
2018-06-12T23:41:42.946Z,76.67
2018-06-12T23:44:12.351Z,77.32
2018-06-12T23:46:41.843Z,76.54
2018-06-12T23:49:11.250Z,77.27
2018-06-12T23:51:40.646Z,77.63
2018-06-12T23:54:09.938Z,77.71
2018-06-12T23:56:39.226Z,78.42
2018-06-12T23:59:10.486Z,78.35
